Aviation Digital Data Service (ADDS)

Output produced by METARs form (2308 UTC 04 September 2015)
found at http://aviationweather.gov/adds/metars/
 
KJXN 041741Z 0418/0518 29007KT P6SM BKN025 
     FM042100 28008KT P6SM VCTS BKN025CB 
     FM050100 VRB02KT P6SM SCT050 
     FM050300 00000KT 4SM BR SCT070 
     FM050700 00000KT 2SM BR SCT100 
     FM051400 21006KT 6SM HZ SCT200